Time;durP1;ratioP1;P1;durP2;ratioP2;P2;SDS_P1;SDS_P2;PMS_P1;PMS_P2;Temp;Humidity;BMP_temperature;BMP_pressure;BME280_temperature;BME280_humidity;BME280_pressure;Samples;Min_cycle;Max_cycle;Signal;HPM_P1;HPM_P2
2021/01/01 00:05:54;;;;;;;1999.90;999.90;;;1.50;99.90;;;;;;4823603;29;20046;-94
2021/01/01 00:08:33;;;;;;;1999.90;999.90;;;1.40;99.90;;;;;;4826079;29;20058;-93
2021/01/01 00:11:25;;;;;;;1999.90;999.90;;;1.50;99.90;;;;;;4825037;29;20150;-94
2021/01/01 00:14:13;;;;;;;1999.90;999.90;;;1.50;99.90;;;;;;4821984;29;20057;-95
2021/01/01 00:20:01;;;;;;;1999.90;999.90;;;1.50;99.90;;;;;;4816643;29;20137;-93
2021/01/01 00:22:50;;;;;;;1999.90;999.90;;;1.40;99.90;;;;;;4824597;29;20103;-93
2021/01/01 00:25:54;;;;;;;1999.90;999.90;;;1.40;99.90;;;;;;4824840;29;20440;-94
2021/01/01 00:28:51;;;;;;;1999.90;999.90;;;1.40;99.90;;;;;;4827326;29;20054;-93
2021/01/01 00:31:41;;;;;;;1999.90;999.90;;;1.40;99.90;;;;;;4822064;29;20062;-94
2021/01/01 00:34:31;;;;;;;1999.90;999.90;;;1.40;99.90;;;;;;4827378;29;20491;-94
2021/01/01 00:37:53;;;;;;;1999.90;999.90;;;1.40;99.90;;;;;;4821818;29;20141;-94
2021/01/01 00:40:29;;;;;;;1999.90;999.90;;;1.40;99.90;;;;;;4827902;29;20137;-94
2021/01/01 00:46:02;;;;;;;1999.90;999.90;;;1.40;99.90;;;;;;4821085;29;20410;-94
2021/01/01 00:48:35;;;;;;;1999.90;999.90;;;1.30;99.90;;;;;;4828167;29;20051;-94
2021/01/01 00:51:27;;;;;;;1999.90;999.90;;;1.30;99.90;;;;;;4821491;29;20465;-93
2021/01/01 00:54:05;;;;;;;1999.90;999.90;;;1.40;99.90;;;;;;4819152;29;20058;-93
2021/01/01 00:56:51;;;;;;;1999.90;999.90;;;1.40;99.90;;;;;;4825517;29;20050;-94
2021/01/01 00:59:21;;;;;;;1999.90;999.90;;;1.40;99.90;;;;;;4827528;29;20066;-93
2021/01/01 01:02:16;;;;;;;1999.90;999.90;;;1.40;99.90;;;;;;4827534;29;20054;-93
2021/01/01 01:05:19;;;;;;;1999.90;999.90;;;1.40;99.90;;;;;;4826865;29;20562;-94
2021/01/01 01:07:53;;;;;;;1999.90;999.90;;;1.40;99.90;;;;;;4823989;29;20061;-94
2021/01/01 01:10:29;;;;;;;1999.90;999.90;;;1.40;99.90;;;;;;4827923;29;20050;-94
2021/01/01 01:13:03;;;;;;;1999.90;999.90;;;1.40;99.90;;;;;;4821370;29;20062;-93
2021/01/01 01:19:57;;;;;;;1999.90;999.90;;;1.50;99.90;;;;;;4710917;30;20144;-94
2021/01/01 01:26:53;;;;;;;1999.90;999.90;;;1.50;99.90;;;;;;4601329;31;20078;-96
2021/01/01 01:39:25;;;;;;;1999.90;999.90;;;1.60;99.90;;;;;;4549392;31;20146;-94
2021/01/01 01:42:39;;;;;;;1999.90;999.90;;;1.60;99.90;;;;;;4634309;31;20062;-94
2021/01/01 01:45:58;;;;;;;1999.90;999.90;;;1.70;99.90;;;;;;4690546;30;20479;-94
2021/01/01 01:53:15;;;;;;;;;;;;;;;;;;;;;
2021/01/01 01:56:37;;;;;;;1999.90;999.90;;;1.70;99.90;;;;;;4678195;30;20058;-94
2021/01/01 01:59:46;;;;;;;1999.90;999.90;;;1.70;99.90;;;;;;4689500;30;20163;-95
2021/01/01 02:05:50;;;;;;;1999.90;999.90;;;1.80;99.90;;;;;;4829138;29;20061;-96
2021/01/01 02:08:33;;;;;;;1999.90;999.90;;;1.80;99.90;;;;;;4829540;29;20141;-95
2021/01/01 02:14:36;;;;;;;1999.90;999.90;;;1.80;99.90;;;;;;4818294;29;20112;-96
2021/01/01 02:17:30;;;;;;;1999.90;999.90;;;1.90;99.90;;;;;;4827240;29;20054;-95
2021/01/01 02:20:11;;;;;;;1999.90;999.90;;;1.90;99.90;;;;;;4827241;29;20058;-95
2021/01/01 02:23:15;;;;;;;1999.90;999.90;;;1.90;99.90;;;;;;4827137;29;20058;-95
2021/01/01 02:26:33;;;;;;;1999.90;999.90;;;1.90;99.90;;;;;;4826613;29;20062;-95
2021/01/01 02:29:37;;;;;;;1999.90;999.90;;;2.00;99.90;;;;;;4800830;29;20129;-96
2021/01/01 02:32:55;;;;;;;;;;;;;;;;;;;;;
2021/01/01 04:00:19;;;;;;;1999.90;999.90;;;2.10;99.90;;;;;;4860757;29;20045;-94
2021/01/01 04:02:53;;;;;;;1999.90;999.90;;;2.10;99.90;;;;;;4862576;29;20076;-94
2021/01/01 04:17:24;;;;;;;1999.90;999.90;;;2.20;99.90;;;;;;4806984;29;20153;-95
2021/01/01 04:20:17;;;;;;;1999.90;999.90;;;2.30;99.90;;;;;;4805652;29;20075;-96
2021/01/01 04:30:39;;;;;;;1999.90;999.90;;;2.30;99.90;;;;;;4823083;29;20057;-95
2021/01/01 04:33:39;;;;;;;1999.90;999.90;;;2.30;99.90;;;;;;4802780;29;20061;-95
2021/01/01 04:43:42;;;;;;;1999.90;999.90;;;2.40;99.90;;;;;;4826944;29;20477;-95
2021/01/01 04:46:30;;;;;;;1999.90;999.90;;;2.40;99.90;;;;;;4862390;29;20056;-96
2021/01/01 04:49:21;;;;;;;1999.90;999.90;;;2.40;99.90;;;;;;4861693;29;20055;-96
2021/01/01 04:52:27;;;;;;;1999.90;999.90;;;2.50;99.90;;;;;;4861460;29;20476;-95
2021/01/01 04:55:06;;;;;;;1999.90;999.90;;;2.50;99.90;;;;;;4849410;29;20105;-96
